Time;durP1;ratioP1;P1;durP2;ratioP2;P2;SDS_P1;SDS_P2;PMS_P1;PMS_P2;Temp;Humidity;BMP_temperature;BMP_pressure;BME280_temperature;BME280_humidity;BME280_pressure;Samples;Min_cycle;Max_cycle;Signal;HPM_P1;HPM_P2
2023/05/27 00:01:20;;;;;;;13.68;6.03;;;9.50;99.90;;;;;;5034268;28;20213;-60
2023/05/27 00:03:47;;;;;;;9.00;5.28;;;9.40;99.90;;;;;;5034807;28;20238;-62
2023/05/27 00:06:13;;;;;;;18.52;5.88;;;9.40;99.90;;;;;;5034400;28;20198;-60
2023/05/27 00:08:40;;;;;;;16.27;5.93;;;9.40;99.90;;;;;;5033381;28;20213;-57
2023/05/27 00:11:07;;;;;;;19.92;8.52;;;9.40;99.90;;;;;;5033224;28;20198;-60
2023/05/27 00:13:34;;;;;;;15.45;6.35;;;9.40;99.90;;;;;;5033127;28;20231;-59
2023/05/27 00:16:02;;;;;;;10.70;4.53;;;9.30;99.90;;;;;;5033675;28;20318;-60
2023/05/27 00:18:32;;;;;;;13.50;5.47;;;9.30;99.90;;;;;;5033361;28;20217;-60
2023/05/27 00:20:59;;;;;;;21.85;6.00;;;9.30;99.90;;;;;;5033408;28;20207;-60
2023/05/27 00:23:26;;;;;;;17.45;6.78;;;9.30;99.90;;;;;;5033152;28;20218;-60
2023/05/27 00:25:53;;;;;;;19.02;6.30;;;9.20;99.90;;;;;;5033688;28;20206;-60
2023/05/27 00:28:19;;;;;;;14.48;4.85;;;9.20;99.90;;;;;;5036804;28;20681;-60
2023/05/27 00:30:46;;;;;;;17.67;6.22;;;9.20;99.90;;;;;;5037168;28;20664;-60
2023/05/27 00:33:14;;;;;;;12.80;5.15;;;9.10;99.90;;;;;;5037640;28;20242;-59
2023/05/27 00:35:41;;;;;;;13.23;5.95;;;9.10;99.90;;;;;;5036896;28;20735;-60
2023/05/27 00:38:08;;;;;;;15.40;6.65;;;9.10;99.90;;;;;;5036606;28;20245;-60
2023/05/27 00:40:36;;;;;;;9.60;5.18;;;9.10;99.90;;;;;;5036808;28;20209;-60
2023/05/27 00:43:03;;;;;;;15.27;7.05;;;9.00;99.90;;;;;;5036582;28;20295;-60
2023/05/27 00:45:30;;;;;;;21.45;5.65;;;9.00;99.90;;;;;;5036714;28;20304;-60
2023/05/27 00:47:57;;;;;;;13.68;5.30;;;9.00;99.90;;;;;;5036565;28;20202;-59
2023/05/27 00:50:26;;;;;;;14.45;5.28;;;9.00;99.90;;;;;;5036842;28;20198;-60
2023/05/27 00:52:55;;;;;;;13.75;5.78;;;9.00;99.90;;;;;;5036314;28;20724;-60
2023/05/27 00:55:22;;;;;;;16.88;5.97;;;8.90;99.90;;;;;;5036888;28;20202;-60
2023/05/27 00:57:48;;;;;;;14.05;5.88;;;8.90;99.90;;;;;;5036643;28;20237;-61
2023/05/27 01:00:15;;;;;;;13.30;6.80;;;8.90;99.90;;;;;;5036601;28;20206;-60
2023/05/27 01:02:43;;;;;;;15.18;6.40;;;8.90;99.90;;;;;;5036022;28;20262;-60
2023/05/27 01:05:12;;;;;;;16.67;5.97;;;8.80;99.90;;;;;;5036206;28;20635;-58
2023/05/27 01:07:49;;;;;;;13.82;6.35;;;8.80;99.90;;;;;;5036453;28;20203;-60
2023/05/27 01:10:24;;;;;;;15.95;6.20;;;8.80;99.90;;;;;;5036391;28;20190;-60
2023/05/27 01:12:58;;;;;;;15.38;7.25;;;8.70;99.90;;;;;;5036116;28;20226;-60
2023/05/27 01:15:25;;;;;;;12.02;5.93;;;8.70;99.90;;;;;;5036201;28;20190;-60
2023/05/27 01:17:56;;;;;;;12.20;5.07;;;8.70;99.90;;;;;;5036096;28;20316;-59
2023/05/27 01:20:24;;;;;;;17.08;5.70;;;8.70;99.90;;;;;;5036405;28;20197;-59
2023/05/27 01:22:53;;;;;;;14.45;5.50;;;8.60;99.90;;;;;;5036025;28;20230;-60
2023/05/27 01:25:21;;;;;;;10.43;6.10;;;8.60;99.90;;;;;;5035931;28;20264;-60
2023/05/27 01:27:47;;;;;;;13.38;6.20;;;8.60;99.90;;;;;;5035793;28;20285;-61
2023/05/27 01:30:14;;;;;;;17.17;6.20;;;8.50;99.90;;;;;;5035695;28;20206;-60
2023/05/27 01:32:46;;;;;;;18.88;6.78;;;8.50;99.90;;;;;;5036017;28;20222;-60
2023/05/27 01:35:21;;;;;;;14.93;6.28;;;8.50;99.90;;;;;;5036038;28;20195;-59
2023/05/27 01:37:51;;;;;;;19.92;6.47;;;8.40;99.90;;;;;;5035605;28;20202;-60
2023/05/27 01:40:21;;;;;;;18.55;6.80;;;8.40;99.90;;;;;;5035420;28;20187;-60
2023/05/27 01:42:49;;;;;;;16.85;6.15;;;8.40;99.90;;;;;;5035750;28;20229;-60
2023/05/27 01:45:15;;;;;;;12.90;6.43;;;8.40;99.90;;;;;;5035406;28;20202;-59
2023/05/27 01:47:44;;;;;;;13.95;6.57;;;8.30;99.90;;;;;;5035583;28;20198;-59
2023/05/27 01:50:11;;;;;;;11.95;6.22;;;8.30;99.90;;;;;;5035626;28;20199;-59
2023/05/27 01:52:38;;;;;;;14.48;5.93;;;8.30;99.90;;;;;;5035323;28;20229;-58
2023/05/27 01:55:06;;;;;;;17.95;6.10;;;8.20;99.90;;;;;;5035579;28;20207;-60
2023/05/27 01:57:34;;;;;;;13.98;6.13;;;8.20;99.90;;;;;;5035453;28;20229;-61
2023/05/27 02:00:01;;;;;;;14.10;5.60;;;8.20;99.90;;;;;;5035033;28;20198;-60
2023/05/27 02:02:28;;;;;;;11.85;5.38;;;8.20;99.90;;;;;;5059299;22;20658;-61
2023/05/27 02:04:55;;;;;;;19.63;7.38;;;8.20;99.90;;;;;;5036419;28;20225;-60
2023/05/27 02:07:22;;;;;;;13.57;6.18;;;8.20;99.90;;;;;;5035155;28;20205;-60
2023/05/27 02:09:49;;;;;;;13.30;5.70;;;8.20;99.90;;;;;;5035168;28;20272;-61
2023/05/27 02:12:16;;;;;;;16.10;5.95;;;8.20;99.90;;;;;;5034903;28;20206;-60
2023/05/27 02:14:44;;;;;;;21.20;6.40;;;8.20;99.90;;;;;;5035035;28;20233;-60
2023/05/27 02:17:11;;;;;;;19.05;6.85;;;8.20;99.90;;;;;;5035227;28;20609;-60
2023/05/27 02:19:38;;;;;;;11.80;6.50;;;8.20;99.90;;;;;;5035007;28;20202;-60
2023/05/27 02:22:05;;;;;;;17.15;6.13;;;8.10;99.90;;;;;;5034788;28;20751;-61
2023/05/27 02:24:32;;;;;;;21.63;8.07;;;8.10;99.90;;;;;;5035116;28;20222;-61
2023/05/27 02:26:59;;;;;;;15.77;6.15;;;8.00;99.90;;;;;;5034814;28;20289;-61
2023/05/27 02:29:26;;;;;;;14.75;6.28;;;8.00;99.90;;;;;;5035051;28;20206;-60
2023/05/27 02:31:55;;;;;;;14.18;5.97;;;8.00;99.90;;;;;;5035004;28;20202;-60
2023/05/27 02:34:21;;;;;;;20.42;6.15;;;8.00;99.90;;;;;;5034753;28;20222;-61
2023/05/27 02:36:48;;;;;;;15.50;5.60;;;8.00;99.90;;;;;;5034862;28;20225;-61
2023/05/27 02:39:15;;;;;;;15.35;6.50;;;8.00;99.90;;;;;;5034769;28;20694;-61
2023/05/27 02:41:42;;;;;;;18.25;6.30;;;7.90;99.90;;;;;;5034665;28;20260;-61
2023/05/27 02:44:09;;;;;;;17.83;5.13;;;7.90;99.90;;;;;;5034661;28;20226;-61
2023/05/27 02:46:36;;;;;;;13.38;5.40;;;7.90;99.90;;;;;;5036075;28;20256;-60
2023/05/27 02:49:04;;;;;;;16.95;7.78;;;7.80;99.90;;;;;;5034963;28;20577;-60
2023/05/27 02:51:31;;;;;;;13.38;6.25;;;7.80;99.90;;;;;;5033148;28;20729;-60
2023/05/27 02:53:57;;;;;;;16.52;6.20;;;7.80;99.90;;;;;;5034490;28;20318;-61
2023/05/27 02:56:25;;;;;;;15.77;5.15;;;7.80;99.90;;;;;;5034418;28;20212;-60
2023/05/27 02:58:52;;;;;;;12.00;6.10;;;7.80;99.90;;;;;;5034246;28;20222;-61
2023/05/27 03:01:19;;;;;;;12.25;5.60;;;7.80;99.90;;;;;;5034606;28;20199;-61
2023/05/27 03:03:46;;;;;;;20.30;6.60;;;7.80;99.90;;;;;;5034213;28;20321;-60
2023/05/27 03:06:15;;;;;;;16.65;6.30;;;7.80;99.90;;;;;;5034524;28;20200;-61
2023/05/27 03:08:42;;;;;;;14.02;6.03;;;7.80;99.90;;;;;;5034275;28;20702;-60
2023/05/27 03:11:08;;;;;;;18.58;5.93;;;7.80;99.90;;;;;;5034171;28;20245;-61
2023/05/27 03:13:35;;;;;;;15.77;6.28;;;7.90;99.90;;;;;;5034110;28;20248;-61
2023/05/27 03:16:02;;;;;;;22.48;7.03;;;7.90;99.90;;;;;;5034142;28;20202;-61
2023/05/27 03:18:29;;;;;;;13.75;7.38;;;7.90;99.90;;;;;;5033784;28;20221;-61
2023/05/27 03:20:56;;;;;;;14.13;6.50;;;8.00;99.90;;;;;;5034205;28;20292;-60
2023/05/27 03:23:24;;;;;;;14.70;7.28;;;8.00;99.90;;;;;;5034060;28;20312;-62
2023/05/27 03:25:51;;;;;;;20.00;6.25;;;8.00;99.90;;;;;;5033461;28;20209;-61
2023/05/27 03:28:18;;;;;;;21.67;7.55;;;8.00;99.90;;;;;;5033706;28;20201;-61
2023/05/27 03:30:44;;;;;;;16.77;6.63;;;8.10;99.90;;;;;;5033528;28;20212;-61
2023/05/27 03:33:12;;;;;;;17.33;6.53;;;8.10;99.90;;;;;;5037132;28;20230;-61
2023/05/27 03:35:38;;;;;;;15.88;5.10;;;8.00;99.90;;;;;;5035567;28;20211;-59
2023/05/27 03:38:05;;;;;;;17.05;6.03;;;8.10;99.90;;;;;;5033566;28;20222;-59
2023/05/27 03:40:33;;;;;;;14.13;6.80;;;8.10;99.90;;;;;;5033403;28;20205;-60
2023/05/27 03:43:00;;;;;;;16.50;6.95;;;8.10;99.90;;;;;;5033714;28;20252;-60
2023/05/27 03:45:27;;;;;;;16.73;5.43;;;8.10;99.90;;;;;;5033941;28;20706;-59
2023/05/27 03:47:54;;;;;;;17.77;6.15;;;8.20;99.90;;;;;;5034496;28;20569;-60
2023/05/27 03:50:21;;;;;;;16.92;5.90;;;8.20;99.90;;;;;;5033964;28;20699;-60
2023/05/27 03:52:47;;;;;;;16.55;6.55;;;8.30;99.90;;;;;;5033331;28;20223;-61
2023/05/27 03:55:16;;;;;;;13.95;6.30;;;8.30;99.90;;;;;;5033558;28;20210;-60
2023/05/27 03:57:44;;;;;;;17.88;5.90;;;8.40;99.90;;;;;;5033550;28;20218;-60
2023/05/27 04:00:12;;;;;;;17.20;6.25;;;8.60;99.90;;;;;;5033694;28;20328;-57
2023/05/27 04:02:40;;;;;;;10.07;5.18;;;8.80;99.90;;;;;;5033216;28;20207;-61
2023/05/27 04:05:07;;;;;;;16.35;5.60;;;9.00;99.90;;;;;;5034327;28;20248;-59
2023/05/27 04:07:34;;;;;;;11.52;5.00;;;9.30;99.90;;;;;;5033703;28;20206;-60
2023/05/27 04:11:47;;;;;;;15.13;6.75;;;9.70;99.90;;;;;;5112000;27;20547;-62
2023/05/27 04:14:14;;;;;;;13.27;5.00;;;10.00;99.90;;;;;;5111485;28;20580;-62
2023/05/27 04:16:41;;;;;;;8.30;4.97;;;10.30;99.90;;;;;;5111565;28;20441;-62
2023/05/27 04:19:08;;;;;;;16.27;5.20;;;10.50;99.90;;;;;;5111935;28;20525;-62
2023/05/27 04:21:35;;;;;;;10.27;4.83;;;10.70;99.90;;;;;;5110896;28;20448;-62
2023/05/27 04:24:03;;;;;;;18.57;7.00;;;10.90;99.90;;;;;;5110987;28;20465;-62
2023/05/27 04:26:30;;;;;;;12.57;5.37;;;11.00;99.90;;;;;;5110624;28;20445;-63
2023/05/27 04:28:59;;;;;;;17.67;5.30;;;11.20;99.90;;;;;;5110968;28;20442;-63
2023/05/27 04:31:28;;;;;;;9.40;4.87;;;11.40;99.90;;;;;;5110390;28;20585;-63
2023/05/27 04:33:55;;;;;;;13.50;5.00;;;11.70;99.90;;;;;;5110478;28;20979;-62
2023/05/27 04:36:25;;;;;;;10.50;5.03;;;11.90;99.90;;;;;;5111884;28;20471;-62
2023/05/27 04:38:52;;;;;;;12.50;4.40;;;12.00;99.90;;;;;;5111035;28;20548;-62
2023/05/27 04:41:21;;;;;;;11.40;5.10;;;12.20;99.90;;;;;;5111381;28;20843;-63
2023/05/27 04:43:48;;;;;;;11.90;5.10;;;12.30;99.90;;;;;;5110923;28;20459;-62
2023/05/27 04:46:17;;;;;;;10.87;4.60;;;12.50;99.90;;;;;;5110531;28;20814;-63
2023/05/27 04:48:46;;;;;;;10.30;4.83;;;12.50;99.90;;;;;;5110565;28;20442;-63
2023/05/27 04:51:15;;;;;;;14.63;4.50;;;12.60;99.90;;;;;;5110026;28;20478;-63
2023/05/27 04:53:42;;;;;;;10.03;4.67;;;12.70;99.90;;;;;;5109992;28;20462;-63
2023/05/27 04:56:09;;;;;;;13.33;5.17;;;12.80;99.90;;;;;;5110068;28;20449;-63
2023/05/27 04:58:36;;;;;;;10.17;4.67;;;13.00;99.90;;;;;;5110335;28;20452;-63
2023/05/27 05:01:04;;;;;;;11.90;5.40;;;13.20;99.90;;;;;;5110621;28;20473;-64
2023/05/27 05:03:39;;;;;;;10.27;5.23;;;13.50;99.90;;;;;;5112808;28;20469;-63
2023/05/27 05:06:07;;;;;;;14.50;5.20;;;13.60;99.90;;;;;;5114086;28;20430;-63
2023/05/27 05:08:33;;;;;;;11.40;4.83;;;13.80;99.90;;;;;;5110790;28;20450;-63
2023/05/27 05:11:00;;;;;;;11.23;5.37;;;13.80;99.90;;;;;;5109954;28;20493;-63
2023/05/27 05:13:28;;;;;;;13.03;5.80;;;13.90;99.90;;;;;;5110566;28;20504;-63
2023/05/27 05:15:56;;;;;;;11.50;5.43;;;13.80;99.90;;;;;;5110627;28;21017;-63
2023/05/27 05:18:22;;;;;;;16.13;4.90;;;13.80;99.90;;;;;;5111395;28;20450;-63
2023/05/27 05:20:51;;;;;;;14.20;5.53;;;13.90;99.90;;;;;;5111196;28;20446;-63
2023/05/27 05:23:18;;;;;;;13.13;5.10;;;14.00;99.90;;;;;;5098104;28;20466;-63
2023/05/27 05:25:45;;;;;;;11.03;5.50;;;14.10;99.90;;;;;;5100988;28;20485;-63
2023/05/27 05:28:11;;;;;;;9.03;5.00;;;14.10;99.90;;;;;;5099603;28;20939;-63
2023/05/27 05:30:39;;;;;;;10.17;4.53;;;13.90;99.90;;;;;;5100191;28;20513;-63
2023/05/27 05:33:06;;;;;;;15.40;5.30;;;13.90;99.90;;;;;;5098777;28;20488;-63
2023/05/27 05:35:33;;;;;;;12.50;6.17;;;13.80;99.90;;;;;;5100478;28;20449;-63
2023/05/27 05:38:01;;;;;;;13.30;4.83;;;13.80;99.90;;;;;;5100119;28;20435;-63
2023/05/27 05:40:28;;;;;;;11.03;5.57;;;13.80;99.90;;;;;;5101206;28;20512;-63
2023/05/27 05:42:55;;;;;;;9.00;4.90;;;13.90;99.90;;;;;;5103995;28;20458;-63
2023/05/27 05:45:22;;;;;;;15.87;5.80;;;14.00;99.50;;;;;;5101013;28;20453;-62
2023/05/27 05:47:48;;;;;;;13.03;4.90;;;14.10;99.10;;;;;;5098638;28;20450;-62
2023/05/27 05:50:15;;;;;;;9.47;4.80;;;14.10;98.90;;;;;;5096070;28;20849;-62
2023/05/27 05:52:42;;;;;;;11.23;4.50;;;14.20;98.60;;;;;;5096342;28;20838;-63
2023/05/27 05:55:10;;;;;;;12.13;5.00;;;14.40;98.20;;;;;;5096294;28;20450;-64
2023/05/27 05:57:37;;;;;;;10.50;5.10;;;14.40;97.90;;;;;;5096143;28;20443;-65
2023/05/27 06:00:08;;;;;;;13.37;5.77;;;14.50;97.10;;;;;;5097256;28;20450;-65
2023/05/27 06:02:34;;;;;;;10.70;5.20;;;14.40;96.60;;;;;;5107436;28;20484;-65
2023/05/27 06:05:01;;;;;;;9.23;4.60;;;14.30;97.20;;;;;;5109448;28;20529;-65
2023/05/27 06:07:28;;;;;;;10.07;5.20;;;14.30;97.60;;;;;;5112657;28;20457;-64
2023/05/27 06:09:55;;;;;;;9.60;5.00;;;14.40;97.10;;;;;;5110118;28;20453;-65
2023/05/27 06:12:23;;;;;;;10.47;4.90;;;14.40;97.00;;;;;;5106310;28;20452;-64
2023/05/27 06:14:50;;;;;;;17.73;6.37;;;14.50;96.80;;;;;;5104615;28;20457;-64
2023/05/27 06:17:17;;;;;;;10.00;6.03;;;14.40;96.10;;;;;;5102017;28;20504;-64
2023/05/27 06:19:44;;;;;;;12.30;5.87;;;14.40;95.70;;;;;;5098549;28;20813;-64
2023/05/27 06:22:11;;;;;;;8.80;5.33;;;14.30;95.40;;;;;;5095874;28;20533;-64
2023/05/27 06:24:37;;;;;;;15.17;5.70;;;14.30;95.20;;;;;;5095767;28;20462;-63
2023/05/27 06:27:05;;;;;;;9.57;5.40;;;14.30;94.70;;;;;;5096881;28;20456;-61
2023/05/27 06:29:33;;;;;;;13.63;5.07;;;14.20;94.60;;;;;;5095968;28;20859;-64
2023/05/27 06:32:00;;;;;;;13.80;5.47;;;14.20;94.40;;;;;;5096091;28;20478;-63
2023/05/27 06:34:27;;;;;;;14.57;6.60;;;14.20;94.30;;;;;;5095691;28;20826;-62
2023/05/27 06:36:54;;;;;;;15.03;6.10;;;14.30;93.80;;;;;;5098419;28;20442;-62
2023/05/27 06:39:22;;;;;;;13.60;5.90;;;14.30;93.40;;;;;;5094751;28;20538;-62
2023/05/27 06:41:49;;;;;;;12.20;5.57;;;14.30;93.50;;;;;;5095702;28;20453;-63
2023/05/27 06:44:16;;;;;;;12.97;5.40;;;14.30;93.40;;;;;;5100782;28;20469;-61
2023/05/27 06:46:44;;;;;;;15.47;5.80;;;14.40;93.10;;;;;;5095217;28;20812;-61
2023/05/27 06:49:11;;;;;;;10.60;5.60;;;14.50;92.80;;;;;;5095004;28;20524;-62
2023/05/27 06:51:38;;;;;;;12.77;6.17;;;14.50;92.50;;;;;;5094989;28;20467;-62
2023/05/27 06:54:05;;;;;;;14.63;5.53;;;14.50;92.30;;;;;;5094351;28;21002;-62
2023/05/27 06:56:31;;;;;;;10.70;5.30;;;14.50;92.20;;;;;;5094773;28;20442;-63
2023/05/27 06:58:58;;;;;;;14.93;4.90;;;14.60;92.20;;;;;;5094294;28;20454;-62
2023/05/27 07:01:25;;;;;;;13.80;5.00;;;14.70;91.90;;;;;;5094657;28;20463;-62
2023/05/27 07:03:53;;;;;;;13.57;5.40;;;14.90;91.00;;;;;;5094487;28;20471;-62
2023/05/27 07:06:20;;;;;;;11.80;4.80;;;15.00;90.70;;;;;;5094468;28;20437;-62
2023/05/27 07:08:47;;;;;;;8.80;5.13;;;15.10;90.30;;;;;;5094660;28;20442;-62
2023/05/27 07:11:14;;;;;;;9.83;4.37;;;15.20;89.70;;;;;;5093726;28;20517;-62
2023/05/27 07:13:41;;;;;;;12.50;5.40;;;15.20;88.60;;;;;;5095233;28;20826;-62
2023/05/27 07:16:08;;;;;;;10.87;5.17;;;15.30;88.70;;;;;;5095229;28;20962;-62
2023/05/27 07:18:34;;;;;;;12.87;4.80;;;15.40;87.60;;;;;;5094400;28;20437;-62
2023/05/27 07:21:03;;;;;;;7.33;4.13;;;15.40;86.30;;;;;;5094037;28;20806;-62
2023/05/27 07:23:29;;;;;;;10.60;5.00;;;15.40;86.10;;;;;;5094110;28;20536;-62
2023/05/27 07:25:56;;;;;;;14.10;5.00;;;15.50;86.10;;;;;;5094166;28;20462;-62
2023/05/27 07:28:23;;;;;;;8.23;4.30;;;15.60;85.70;;;;;;5093993;28;20450;-61
2023/05/27 07:30:50;;;;;;;9.90;4.67;;;15.70;83.90;;;;;;5094070;28;20484;-62
2023/05/27 07:33:17;;;;;;;10.40;5.03;;;15.90;82.20;;;;;;5093806;28;20462;-62
2023/05/27 07:35:44;;;;;;;10.60;4.43;;;16.10;80.70;;;;;;5093708;28;20944;-62
2023/05/27 07:38:12;;;;;;;10.10;5.30;;;16.20;78.30;;;;;;5093667;28;20894;-62
2023/05/27 07:40:39;;;;;;;11.07;4.90;;;16.20;77.40;;;;;;5095046;28;20442;-62
2023/05/27 07:43:05;;;;;;;8.53;4.33;;;16.10;76.20;;;;;;5093597;28;20557;-62
2023/05/27 07:45:32;;;;;;;10.43;4.50;;;16.10;75.00;;;;;;5093499;28;20451;-62
2023/05/27 07:47:59;;;;;;;8.83;4.43;;;16.10;74.00;;;;;;5093930;28;20446;-62
2023/05/27 07:50:26;;;;;;;11.63;4.50;;;16.10;73.90;;;;;;5094760;28;21009;-62
2023/05/27 07:52:53;;;;;;;12.63;4.80;;;16.30;73.30;;;;;;5096246;28;20466;-62
2023/05/27 07:55:21;;;;;;;10.33;3.70;;;16.40;72.60;;;;;;5095516;28;20442;-63
2023/05/27 07:57:48;;;;;;;10.40;4.10;;;16.40;71.10;;;;;;5096588;28;20504;-63
2023/05/27 08:00:15;;;;;;;9.40;4.00;;;16.50;70.10;;;;;;5096297;28;20445;-61
2023/05/27 08:02:43;;;;;;;7.43;3.80;;;16.50;68.90;;;;;;5097501;28;20458;-61
2023/05/27 08:05:10;;;;;;;11.80;4.43;;;16.60;67.80;;;;;;5097093;28;20999;-63
2023/05/27 08:07:37;;;;;;;10.93;4.47;;;16.70;67.30;;;;;;5096370;28;20504;-62
2023/05/27 08:10:04;;;;;;;11.90;4.20;;;16.80;66.80;;;;;;5095374;28;20511;-60
2023/05/27 08:12:33;;;;;;;9.07;4.13;;;16.90;65.90;;;;;;5096816;28;20474;-62
2023/05/27 08:14:59;;;;;;;6.80;3.53;;;17.00;65.20;;;;;;5095829;28;20446;-62
2023/05/27 08:17:26;;;;;;;8.90;3.53;;;17.10;64.80;;;;;;5093023;28;20445;-61
2023/05/27 08:19:53;;;;;;;9.50;3.70;;;17.30;63.80;;;;;;5093699;28;20450;-62
2023/05/27 08:22:20;;;;;;;11.87;3.77;;;17.40;62.80;;;;;;5093759;28;20434;-63
2023/05/27 08:24:48;;;;;;;8.33;4.80;;;17.40;61.90;;;;;;5095086;28;20450;-62
2023/05/27 08:27:16;;;;;;;14.70;4.77;;;17.50;61.70;;;;;;5094735;28;20839;-62
2023/05/27 08:29:44;;;;;;;11.77;4.00;;;17.50;60.90;;;;;;5094658;28;20458;-62
2023/05/27 08:32:11;;;;;;;9.33;4.00;;;17.50;60.10;;;;;;5094086;28;20561;-63
2023/05/27 08:34:38;;;;;;;8.93;3.60;;;17.50;59.80;;;;;;5094576;28;20458;-63
2023/05/27 08:37:05;;;;;;;4.80;2.97;;;17.50;59.70;;;;;;5093281;28;20446;-62
2023/05/27 08:39:32;;;;;;;8.83;3.80;;;17.50;59.30;;;;;;5093382;28;20517;-62
2023/05/27 08:42:02;;;;;;;8.73;3.67;;;17.50;58.80;;;;;;5093311;28;20444;-63
2023/05/27 08:44:29;;;;;;;8.47;3.97;;;17.50;58.50;;;;;;5093129;28;20794;-62
2023/05/27 08:46:58;;;;;;;8.50;3.37;;;17.60;58.50;;;;;;5094416;28;20450;-63
2023/05/27 08:49:25;;;;;;;7.83;3.50;;;17.60;57.70;;;;;;5093262;28;20439;-63
2023/05/27 08:51:53;;;;;;;9.90;3.70;;;17.70;57.10;;;;;;5093468;28;20979;-62
2023/05/27 08:54:20;;;;;;;7.10;3.43;;;17.70;56.70;;;;;;5092849;28;20993;-62
2023/05/27 08:56:50;;;;;;;7.87;3.73;;;17.80;56.10;;;;;;5094153;28;20453;-62
2023/05/27 08:59:18;;;;;;;9.03;3.07;;;17.70;56.20;;;;;;5097010;28;20947;-62
2023/05/27 09:01:45;;;;;;;17.77;3.40;;;17.70;56.30;;;;;;5097000;28;20438;-63
2023/05/27 09:04:14;;;;;;;11.53;3.10;;;17.70;56.40;;;;;;5096811;28;20462;-63
2023/05/27 09:06:41;;;;;;;8.87;3.80;;;17.80;56.30;;;;;;5096824;28;20446;-63
2023/05/27 09:09:09;;;;;;;10.40;3.63;;;18.00;56.10;;;;;;5096610;28;20996;-63
2023/05/27 09:11:40;;;;;;;8.30;3.70;;;18.20;56.10;;;;;;5096239;28;20482;-63
2023/05/27 09:14:07;;;;;;;7.97;3.60;;;18.40;55.70;;;;;;5096390;28;20978;-62
2023/05/27 09:16:33;;;;;;;9.53;3.60;;;18.60;55.50;;;;;;5096750;28;20454;-63
2023/05/27 09:19:00;;;;;;;11.30;3.90;;;18.70;55.20;;;;;;5096901;28;20449;-62
2023/05/27 09:21:28;;;;;;;7.43;3.20;;;18.70;55.10;;;;;;5096093;28;20499;-63
2023/05/27 09:23:57;;;;;;;7.63;3.50;;;18.80;54.90;;;;;;5084045;22;20516;-60
2023/05/27 09:26:25;;;;;;;7.20;3.47;;;18.80;54.70;;;;;;5035717;28;20992;-60
2023/05/27 09:28:51;;;;;;;8.90;3.80;;;18.90;54.90;;;;;;5035996;28;20452;-59
2023/05/27 09:31:18;;;;;;;9.80;4.40;;;19.00;54.00;;;;;;5036309;28;20572;-60
2023/05/27 09:33:45;;;;;;;8.60;4.53;;;19.00;53.20;;;;;;5036463;28;20469;-60
2023/05/27 09:36:12;;;;;;;8.30;4.37;;;19.00;53.10;;;;;;5036384;28;20445;-60
2023/05/27 09:38:41;;;;;;;6.70;3.60;;;19.00;53.30;;;;;;5036907;28;20829;-60
2023/05/27 09:41:08;;;;;;;7.53;3.87;;;19.00;53.10;;;;;;5037385;28;20456;-61
2023/05/27 09:43:35;;;;;;;8.13;4.13;;;19.00;53.00;;;;;;5036218;28;20465;-60
2023/05/27 09:46:03;;;;;;;10.63;4.80;;;19.10;52.70;;;;;;5036597;28;20445;-62
2023/05/27 09:48:32;;;;;;;11.40;4.90;;;19.10;52.50;;;;;;5039332;28;20441;-60
2023/05/27 09:50:59;;;;;;;8.53;3.10;;;19.10;52.40;;;;;;5038755;28;20511;-61
2023/05/27 09:53:27;;;;;;;8.77;3.80;;;19.20;52.70;;;;;;5037595;28;20520;-59
2023/05/27 09:55:56;;;;;;;5.60;3.60;;;19.30;52.60;;;;;;5038253;28;20456;-61
2023/05/27 09:58:24;;;;;;;11.57;4.50;;;19.50;52.30;;;;;;5036417;28;20446;-60
2023/05/27 10:00:52;;;;;;;7.13;4.90;;;19.60;51.90;;;;;;5036172;28;20574;-60
2023/05/27 10:03:22;;;;;;;7.63;3.90;;;19.70;51.50;;;;;;5035785;28;20461;-60
2023/05/27 10:05:51;;;;;;;11.50;3.90;;;19.60;51.50;;;;;;5035815;28;20449;-60
2023/05/27 10:08:17;;;;;;;6.97;4.00;;;19.60;51.60;;;;;;5035508;28;20821;-60
2023/05/27 10:10:45;;;;;;;10.80;4.43;;;19.60;51.80;;;;;;5036210;28;20449;-62
2023/05/27 10:13:16;;;;;;;8.50;3.90;;;19.70;51.80;;;;;;5035990;28;20510;-60
2023/05/27 10:15:48;;;;;;;8.00;3.53;;;19.80;51.30;;;;;;5036851;28;20817;-61
2023/05/27 10:18:23;;;;;;;9.57;4.30;;;19.80;50.90;;;;;;5036364;28;20438;-59
2023/05/27 10:20:51;;;;;;;8.97;4.40;;;19.90;50.60;;;;;;5036397;28;20511;-60
2023/05/27 10:23:21;;;;;;;10.73;3.40;;;19.90;50.60;;;;;;5035293;28;20991;-59
2023/05/27 10:25:49;;;;;;;7.40;3.90;;;19.90;50.50;;;;;;5035745;28;20958;-60
2023/05/27 10:28:26;;;;;;;8.37;3.40;;;20.10;50.60;;;;;;5035675;28;20817;-60
2023/05/27 10:30:53;;;;;;;7.70;4.30;;;20.20;50.30;;;;;;5036610;28;20791;-60
2023/05/27 10:33:30;;;;;;;7.13;3.50;;;20.30;50.00;;;;;;5035723;28;21025;-60
2023/05/27 10:35:57;;;;;;;11.77;3.57;;;20.40;49.80;;;;;;5036205;28;20859;-60
2023/05/27 10:38:24;;;;;;;9.77;4.20;;;20.40;49.60;;;;;;5035563;28;20457;-60
2023/05/27 10:41:00;;;;;;;9.70;3.80;;;20.50;49.30;;;;;;5035786;28;20538;-60
2023/05/27 10:43:31;;;;;;;9.03;3.57;;;20.60;49.30;;;;;;5036823;28;20499;-61
2023/05/27 10:46:05;;;;;;;7.33;3.80;;;20.70;48.90;;;;;;5037698;28;20509;-61
2023/05/27 10:48:34;;;;;;;8.60;3.60;;;20.80;48.60;;;;;;5037649;28;20451;-60
2023/05/27 10:51:04;;;;;;;7.00;2.97;;;20.90;48.10;;;;;;5037292;28;20446;-59
2023/05/27 10:53:32;;;;;;;11.40;3.40;;;20.90;47.10;;;;;;5036305;28;20995;-60
2023/05/27 10:56:00;;;;;;;6.70;4.07;;;20.80;46.30;;;;;;5037138;28;20460;-61
2023/05/27 10:58:29;;;;;;;8.37;3.80;;;20.60;46.20;;;;;;5036843;28;20446;-62
2023/05/27 11:00:57;;;;;;;5.23;3.27;;;20.50;46.30;;;;;;5035523;28;20453;-62
2023/05/27 11:03:26;;;;;;;9.13;4.10;;;20.40;46.50;;;;;;5036251;28;20471;-62
2023/05/27 11:06:03;;;;;;;8.60;3.93;;;20.50;46.70;;;;;;5034645;28;20459;-60
2023/05/27 11:08:30;;;;;;;9.93;3.97;;;20.50;46.80;;;;;;5034772;28;20499;-61
2023/05/27 11:11:01;;;;;;;4.83;3.23;;;20.50;46.70;;;;;;5034951;28;20442;-61
2023/05/27 11:13:34;;;;;;;8.53;3.70;;;20.50;46.60;;;;;;5034779;28;20489;-59
2023/05/27 11:16:03;;;;;;;9.77;3.73;;;20.60;46.70;;;;;;5034577;28;20947;-61
2023/05/27 11:18:37;;;;;;;6.93;3.73;;;20.70;46.40;;;;;;5034443;28;20453;-60
2023/05/27 11:21:05;;;;;;;9.87;4.20;;;20.70;46.10;;;;;;5034006;28;20451;-60
2023/05/27 11:23:40;;;;;;;9.50;3.73;;;20.60;46.20;;;;;;5033798;28;20469;-58
2023/05/27 11:26:13;;;;;;;8.10;3.57;;;20.60;46.40;;;;;;5034798;28;20429;-60
2023/05/27 11:28:46;;;;;;;8.93;4.00;;;20.70;46.30;;;;;;5034692;28;20444;-62
2023/05/27 11:31:13;;;;;;;8.50;3.77;;;20.80;46.20;;;;;;5034625;28;20429;-61
2023/05/27 11:33:43;;;;;;;7.90;3.43;;;20.90;46.00;;;;;;5035671;28;20571;-60
2023/05/27 11:36:13;;;;;;;9.00;3.40;;;21.10;45.70;;;;;;5036218;28;20496;-60
2023/05/27 11:38:50;;;;;;;4.80;3.57;;;21.20;45.20;;;;;;5035576;28;20434;-60
2023/05/27 11:41:18;;;;;;;8.43;3.73;;;21.40;44.90;;;;;;5035105;28;20434;-60
2023/05/27 11:43:55;;;;;;;6.63;3.17;;;21.50;44.40;;;;;;5035538;28;20987;-60
2023/05/27 11:46:22;;;;;;;8.93;4.17;;;21.60;44.20;;;;;;5034584;28;20434;-61
2023/05/27 11:48:49;;;;;;;6.33;3.03;;;21.70;44.10;;;;;;5034749;28;20450;-60
2023/05/27 11:51:16;;;;;;;8.23;2.93;;;21.80;43.60;;;;;;5035916;28;20793;-62
2023/05/27 11:53:46;;;;;;;5.57;3.10;;;22.00;42.40;;;;;;5036161;28;20493;-60
2023/05/27 11:56:13;;;;;;;9.83;3.37;;;22.40;41.90;;;;;;5035665;28;20465;-63
2023/05/27 11:58:40;;;;;;;7.87;3.13;;;22.80;41.00;;;;;;5035469;28;21016;-60
2023/05/27 12:01:08;;;;;;;7.97;4.47;;;23.20;40.80;;;;;;5034483;28;20951;-60
2023/05/27 12:03:35;;;;;;;7.67;4.60;;;23.50;40.60;;;;;;5033904;28;20472;-61
2023/05/27 12:06:03;;;;;;;5.80;3.20;;;23.90;40.50;;;;;;5033868;28;20794;-60
2023/05/27 12:08:30;;;;;;;8.07;3.10;;;24.40;40.20;;;;;;5034249;28;20456;-61
2023/05/27 12:10:57;;;;;;;6.27;3.00;;;24.60;39.00;;;;;;5034538;28;20474;-61
2023/05/27 12:13:25;;;;;;;10.57;3.77;;;24.70;38.80;;;;;;5033711;28;20495;-60
2023/05/27 12:15:52;;;;;;;5.20;2.80;;;24.80;38.50;;;;;;5034478;28;20863;-61
2023/05/27 12:18:20;;;;;;;8.20;3.27;;;24.70;38.30;;;;;;5035084;28;20448;-61
2023/05/27 12:20:47;;;;;;;8.17;3.93;;;24.50;38.40;;;;;;5034787;28;20536;-61
2023/05/27 12:23:14;;;;;;;6.13;3.30;;;24.50;38.30;;;;;;5034613;28;20490;-60
2023/05/27 12:25:41;;;;;;;6.73;3.23;;;24.40;38.20;;;;;;5034425;28;20550;-61
2023/05/27 12:28:09;;;;;;;7.23;2.97;;;24.40;38.30;;;;;;5034285;28;20460;-59
2023/05/27 12:30:36;;;;;;;4.97;2.80;;;24.50;38.30;;;;;;5034145;28;20453;-59
2023/05/27 12:33:03;;;;;;;7.20;3.30;;;24.50;38.20;;;;;;5037021;28;20485;-59
2023/05/27 12:35:31;;;;;;;7.73;3.00;;;24.40;38.40;;;;;;5038294;28;20474;-62
2023/05/27 12:37:58;;;;;;;6.27;2.93;;;24.10;38.70;;;;;;5037990;28;20539;-60
2023/05/27 12:40:25;;;;;;;6.80;3.27;;;23.70;39.20;;;;;;5038604;28;20454;-59
2023/05/27 12:42:53;;;;;;;4.50;2.93;;;23.30;39.60;;;;;;5038602;28;20466;-60
2023/05/27 12:45:21;;;;;;;9.70;3.83;;;22.90;40.00;;;;;;5037854;28;20451;-61
2023/05/27 12:47:48;;;;;;;5.13;3.27;;;22.70;40.10;;;;;;5038147;28;20472;-60